Muckle Holm, United Kingdom
Current Conditions -  °F | °C
As of 9:20 PM on Friday 19 Dec 2014 (Local Time) from EGPM Reporting Station
Light Rain Light Rain  
Wind Chill: 28°   Ceiling: 1700
Heat Index: 39°   Visibility: 6mi
Dew Point: 34°   Wind: 26mph
Humidity: 81%   Direction: 270°W
Pressure: 29.18"   Gusts: 39mph
Location:  60.58°N, 1.27°W
Report Text: EGPM 192120Z AUTO 27023G34KT 9999 -RA FEW004/// BKN017/// 04/01 Q0988 RERA
Loading
Personal Weather Stations






























Interactive Weather Map New forecast layout! Learn more

10-Day Weather Forecast

Advertisements
Track Severe Weather on mobile